createdAt,value
2023-01-25T00:00:23.393Z,102157.75
2023-01-25T00:02:50.099Z,102166.59
2023-01-25T00:05:16.930Z,102192.19
2023-01-25T00:07:43.605Z,102236.31
2023-01-25T00:10:10.741Z,102307.44
2023-01-25T00:12:37.369Z,102145.44
2023-01-25T00:15:04.528Z,102154.25
2023-01-25T00:17:31.302Z,102244.00
2023-01-25T00:19:58.114Z,102178.81
2023-01-25T00:22:24.615Z,102236.13
2023-01-25T00:24:51.093Z,102326.75
2023-01-25T00:27:17.579Z,102290.66
2023-01-25T00:29:44.126Z,102341.56
2023-01-25T00:32:10.889Z,102321.50
2023-01-25T00:34:38.944Z,102272.94
2023-01-25T00:37:36.527Z,102322.41
2023-01-25T00:40:04.023Z,102178.03
2023-01-25T00:42:30.636Z,102312.69
2023-01-25T00:44:57.200Z,102272.31
2023-01-25T00:47:23.846Z,102259.69
2023-01-25T00:49:50.430Z,102191.47
2023-01-25T00:52:17.047Z,102109.50
2023-01-25T00:54:43.694Z,102198.47
2023-01-25T00:57:10.589Z,102254.75
2023-01-25T00:59:37.232Z,102135.16
2023-01-25T01:02:04.136Z,102199.34
2023-01-25T01:04:31.255Z,102136.00
2023-01-25T01:06:57.962Z,102214.28
2023-01-25T01:09:24.797Z,102264.47
2023-01-25T01:11:51.681Z,102282.00
2023-01-25T01:14:19.129Z,102317.19
2023-01-25T01:16:45.971Z,102225.63
2023-01-25T01:19:13.086Z,102307.28
2023-01-25T01:21:39.743Z,102271.19
2023-01-25T01:24:07.019Z,102273.91
2023-01-25T01:26:33.753Z,102287.13
2023-01-25T01:29:00.346Z,102284.56
2023-01-25T01:31:27.244Z,102324.13
2023-01-25T01:33:58.311Z,102306.72
2023-01-25T01:36:27.501Z,102194.06
2023-01-25T01:38:54.368Z,102294.41
2023-01-25T01:41:21.301Z,102245.16
2023-01-25T01:43:48.009Z,102317.13
2023-01-25T01:46:28.954Z,102303.16
2023-01-25T01:49:19.840Z,102203.66
2023-01-25T01:51:50.583Z,102203.88
2023-01-25T01:54:29.283Z,102291.94
2023-01-25T01:57:00.551Z,102194.13
2023-01-25T01:59:33.972Z,102107.03
2023-01-25T02:02:00.743Z,102195.03
2023-01-25T02:04:28.495Z,102293.50
2023-01-25T02:07:02.714Z,102286.53
2023-01-25T02:09:31.704Z,102216.06
2023-01-25T02:11:59.971Z,102230.28
2023-01-25T02:14:29.176Z,102270.63
2023-01-25T02:16:56.303Z,102179.13
2023-01-25T02:20:03.511Z,102281.28
2023-01-25T02:22:42.271Z,102251.16
2023-01-25T02:25:10.655Z,102274.16
2023-01-25T02:27:42.584Z,102216.84
2023-01-25T02:30:10.179Z,102280.28
2023-01-25T02:32:37.238Z,102253.09
2023-01-25T02:35:04.800Z,102256.47
2023-01-25T02:37:31.781Z,102255.50
2023-01-25T02:39:58.382Z,102226.44
2023-01-25T02:42:25.039Z,102134.03
2023-01-25T02:44:51.893Z,102117.22
2023-01-25T02:47:18.630Z,102092.69
2023-01-25T02:49:45.380Z,102278.19
2023-01-25T02:52:11.967Z,102041.78
2023-01-25T02:54:38.500Z,102110.31
2023-01-25T02:57:05.215Z,101977.69
2023-01-25T02:59:31.849Z,102259.97
2023-01-25T03:01:58.550Z,102037.38
2023-01-25T03:04:25.280Z,102263.56
2023-01-25T03:06:51.934Z,102274.97
2023-01-25T03:09:18.534Z,102170.28
2023-01-25T03:11:45.156Z,102248.72
2023-01-25T03:14:11.814Z,102261.88
2023-01-25T03:16:38.401Z,102173.06
2023-01-25T03:19:04.903Z,102209.13
2023-01-25T03:21:31.580Z,102247.94
2023-01-25T03:24:00.270Z,102184.66
2023-01-25T03:26:28.587Z,102249.78
2023-01-25T03:28:57.384Z,102162.63
2023-01-25T03:31:24.793Z,102168.91
2023-01-25T03:33:51.566Z,102137.03
2023-01-25T03:36:18.348Z,102170.41
2023-01-25T03:38:45.003Z,102221.34
2023-01-25T03:41:13.777Z,102231.09
2023-01-25T03:43:40.376Z,102221.41
2023-01-25T03:46:07.056Z,102202.31
2023-01-25T03:48:33.863Z,102185.59
2023-01-25T03:51:01.640Z,102182.88
2023-01-25T03:53:30.081Z,102229.59
2023-01-25T03:56:02.214Z,102233.78
2023-01-25T03:58:29.778Z,102213.53
2023-01-25T04:00:58.762Z,102224.06
2023-01-25T04:03:25.829Z,102235.41
2023-01-25T04:05:53.748Z,102234.56
2023-01-25T04:08:20.664Z,102235.41
2023-01-25T04:11:05.940Z,102150.94
2023-01-25T04:13:36.552Z,102162.41
2023-01-25T04:16:03.781Z,102234.38
2023-01-25T04:18:30.515Z,102218.44
2023-01-25T04:20:57.685Z,102211.47
2023-01-25T04:23:26.017Z,102207.19
2023-01-25T04:26:05.253Z,102222.97
2023-01-25T04:28:33.024Z,102228.19
2023-01-25T04:30:59.774Z,102047.78
2023-01-25T04:33:26.816Z,102170.97
2023-01-25T04:35:53.472Z,102214.22
2023-01-25T04:38:20.089Z,102036.56
2023-01-25T04:40:46.710Z,102030.41
2023-01-25T04:43:15.217Z,102201.09
2023-01-25T04:45:41.758Z,102171.16
2023-01-25T04:48:10.233Z,102118.59
2023-01-25T04:50:37.773Z,102140.41
2023-01-25T04:53:05.738Z,102192.41
2023-01-25T04:55:33.858Z,102199.38
2023-01-25T04:58:02.038Z,102171.38
2023-01-25T05:00:29.495Z,102184.53
2023-01-25T05:02:56.157Z,102164.41
2023-01-25T05:05:25.478Z,102189.06
2023-01-25T05:07:51.985Z,102105.69
2023-01-25T05:10:18.631Z,102146.13
2023-01-25T05:12:45.292Z,102031.06
2023-01-25T05:15:12.483Z,102171.59
2023-01-25T05:17:39.256Z,102079.34
2023-01-25T05:20:06.423Z,102053.81
2023-01-25T05:22:33.080Z,102153.13
2023-01-25T05:24:59.830Z,102130.28
2023-01-25T05:27:26.432Z,102125.13
2023-01-25T05:29:53.066Z,102068.72
2023-01-25T05:32:22.171Z,102142.69
2023-01-25T05:34:49.233Z,102169.06
2023-01-25T05:37:19.303Z,102161.31
2023-01-25T05:39:45.835Z,102089.97
2023-01-25T05:42:14.457Z,102021.47
2023-01-25T05:44:41.207Z,102076.69
2023-01-25T05:47:11.907Z,102157.78
2023-01-25T05:49:38.203Z,102153.53
2023-01-25T05:52:05.052Z,102167.50
2023-01-25T05:54:31.553Z,102082.25
2023-01-25T05:56:58.078Z,102108.59
2023-01-25T05:59:24.649Z,102140.28
2023-01-25T06:01:52.521Z,102035.66
2023-01-25T06:04:19.009Z,102006.72
2023-01-25T06:06:45.515Z,102006.63
2023-01-25T06:09:13.078Z,102157.06
2023-01-25T06:11:39.832Z,102151.81
2023-01-25T06:14:06.311Z,102107.72
2023-01-25T06:16:32.850Z,102133.16
2023-01-25T06:18:59.303Z,102090.06
2023-01-25T06:21:25.815Z,102133.09
2023-01-25T06:23:52.363Z,102029.38
2023-01-25T06:26:18.986Z,102156.00
2023-01-25T06:28:45.435Z,102095.31
2023-01-25T06:31:17.147Z,102147.22
2023-01-25T06:33:47.094Z,102141.06
2023-01-25T06:36:15.719Z,102124.38
2023-01-25T06:38:42.720Z,102065.38
2023-01-25T06:41:12.103Z,102072.19
2023-01-25T06:43:39.360Z,102125.88
2023-01-25T06:46:08.918Z,102131.97
2023-01-25T06:48:35.894Z,102132.84
2023-01-25T06:51:06.116Z,102167.03
2023-01-25T06:53:35.980Z,102093.19
2023-01-25T06:56:10.000Z,101989.50
2023-01-25T06:58:37.964Z,102145.13
2023-01-25T07:01:12.987Z,102021.44
2023-01-25T07:03:40.808Z,102142.81
2023-01-25T07:06:09.439Z,102150.63
2023-01-25T07:08:36.922Z,102148.13
2023-01-25T07:11:06.569Z,102153.31
2023-01-25T07:13:34.271Z,102037.28
2023-01-25T07:16:06.302Z,102109.41
2023-01-25T07:18:34.060Z,102039.03
2023-01-25T07:21:06.211Z,101979.09
2023-01-25T07:23:34.516Z,102177.56
2023-01-25T07:26:02.115Z,102152.22
2023-01-25T07:28:29.073Z,102070.28
2023-01-25T07:30:55.600Z,102097.69
2023-01-25T07:33:22.207Z,102000.75
2023-01-25T07:35:50.935Z,102015.97
2023-01-25T07:38:17.826Z,102126.69
2023-01-25T07:40:44.377Z,102128.44
2023-01-25T07:43:10.900Z,102095.13
2023-01-25T07:45:37.566Z,102112.72
2023-01-25T07:48:10.555Z,102144.47
2023-01-25T07:50:37.037Z,102063.63
2023-01-25T07:53:03.530Z,102146.28
2023-01-25T07:55:31.016Z,102131.38
2023-01-25T07:57:57.554Z,102086.56
2023-01-25T08:00:25.125Z,101976.75
2023-01-25T08:02:52.471Z,102091.88
2023-01-25T08:05:19.577Z,102069.88
2023-01-25T08:07:48.315Z,102147.28
2023-01-25T08:10:15.445Z,102116.56
2023-01-25T08:12:46.297Z,102081.47
2023-01-25T08:15:13.930Z,102097.34
2023-01-25T08:17:40.560Z,102028.72
2023-01-25T08:20:08.127Z,102119.19
2023-01-25T08:22:34.676Z,102086.59
2023-01-25T08:25:01.703Z,102084.66
2023-01-25T08:27:29.134Z,102155.94
2023-01-25T08:29:55.670Z,102024.13
2023-01-25T08:32:22.237Z,102062.84
2023-01-25T08:34:48.799Z,102135.00
2023-01-25T08:37:15.352Z,102078.88
2023-01-25T08:39:41.846Z,102024.22
2023-01-25T08:42:08.396Z,102003.13
2023-01-25T08:44:34.975Z,102074.22
2023-01-25T08:47:01.579Z,102138.28
2023-01-25T08:49:28.218Z,102092.53
2023-01-25T08:51:54.817Z,102097.78
2023-01-25T08:54:21.412Z,102097.06
2023-01-25T08:56:48.018Z,101987.28
2023-01-25T08:59:14.493Z,102076.91
2023-01-25T09:01:41.231Z,102110.41
2023-01-25T09:04:07.839Z,102049.88
2023-01-25T09:06:34.451Z,102093.88
2023-01-25T09:09:01.407Z,102105.22
2023-01-25T09:11:28.027Z,102036.56
2023-01-25T09:13:54.552Z,102067.56
2023-01-25T09:16:28.852Z,102029.00
2023-01-25T09:18:57.931Z,102112.63
2023-01-25T09:21:24.697Z,102087.22
2023-01-25T09:24:05.465Z,102103.94
2023-01-25T09:26:33.584Z,102101.38
2023-01-25T09:29:00.227Z,102080.34
2023-01-25T09:31:29.732Z,102079.38
2023-01-25T09:33:58.019Z,102084.69
2023-01-25T09:36:24.618Z,102041.72
2023-01-25T09:38:51.304Z,102011.84
2023-01-25T09:41:43.626Z,102039.06
2023-01-25T09:44:36.950Z,102062.78
2023-01-25T09:47:15.420Z,102097.88
2023-01-25T09:49:48.075Z,102103.97
2023-01-25T09:52:54.154Z,102098.78
2023-01-25T09:55:24.419Z,101986.16
2023-01-25T09:57:54.158Z,102058.13
2023-01-25T10:00:28.205Z,102097.59
2023-01-25T10:03:21.239Z,102029.25
2023-01-25T10:05:50.798Z,102098.63
2023-01-25T10:08:18.058Z,102093.50
2023-01-25T10:10:48.308Z,102085.50
2023-01-25T10:13:21.632Z,102083.91
2023-01-25T10:15:52.456Z,102013.53
2023-01-25T10:18:31.220Z,102086.34
2023-01-25T10:21:02.004Z,102040.69
2023-01-25T10:23:31.239Z,102077.63
2023-01-25T10:26:00.660Z,102046.97
2023-01-25T10:28:53.805Z,102035.44
2023-01-25T10:31:29.573Z,102067.44
2023-01-25T10:33:57.090Z,102064.84
2023-01-25T10:36:29.747Z,102038.50
2023-01-25T10:39:01.164Z,102021.91
2023-01-25T10:41:37.912Z,101961.31
2023-01-25T10:44:24.476Z,102002.44
2023-01-25T10:47:17.099Z,102042.72
2023-01-25T10:49:54.667Z,102033.03
2023-01-25T10:52:24.675Z,101831.09
2023-01-25T10:55:20.457Z,102024.31
2023-01-25T10:57:53.299Z,102022.63
2023-01-25T11:00:37.669Z,102002.56
2023-01-25T11:03:04.843Z,102015.13
2023-01-25T11:05:34.448Z,102008.94
2023-01-25T11:08:35.306Z,102013.41
2023-01-25T11:11:14.380Z,102005.44
2023-01-25T11:13:41.977Z,101996.63
2023-01-25T11:16:23.685Z,101998.31
2023-01-25T11:18:55.457Z,101977.28
2023-01-25T11:21:30.325Z,101985.91
2023-01-25T11:24:09.380Z,101982.53
2023-01-25T11:26:41.010Z,101982.53
2023-01-25T11:29:20.967Z,101979.16
2023-01-25T11:31:55.274Z,101981.91
2023-01-25T11:34:26.527Z,101936.41
2023-01-25T11:37:01.162Z,101974.25
2023-01-25T11:39:53.504Z,101897.16
2023-01-25T11:43:07.243Z,101955.22
2023-01-25T11:45:55.393Z,101951.69
2023-01-25T11:48:43.614Z,101921.16
2023-01-25T11:51:35.868Z,101892.09
2023-01-25T11:54:23.944Z,101914.84
2023-01-25T11:56:53.567Z,101928.00
2023-01-25T11:59:35.157Z,101922.75
2023-01-25T12:02:23.801Z,101913.16
2023-01-25T12:05:16.268Z,101857.94
2023-01-25T12:08:33.507Z,101886.88
2023-01-25T12:11:04.722Z,101822.00
2023-01-25T12:13:57.441Z,101804.47
2023-01-25T12:16:39.680Z,101774.72
2023-01-25T12:19:41.659Z,101882.50
2023-01-25T12:22:50.288Z,101883.41
2023-01-25T12:25:26.195Z,101780.75
2023-01-25T12:28:04.694Z,101866.78
2023-01-25T12:30:43.450Z,101855.47
2023-01-25T12:33:18.308Z,101853.88
2023-01-25T12:36:07.901Z,101851.25
2023-01-25T12:38:39.767Z,101787.19
2023-01-25T12:41:28.408Z,101846.03
2023-01-25T12:44:19.630Z,101839.88
2023-01-25T12:46:49.200Z,101841.53
2023-01-25T12:49:23.776Z,101797.72
2023-01-25T12:51:53.047Z,101815.41
2023-01-25T12:54:27.846Z,101805.78
2023-01-25T12:57:07.325Z,101746.28
2023-01-25T12:59:50.025Z,101798.81
2023-01-25T13:02:46.262Z,101755.88
2023-01-25T13:05:30.886Z,101811.94
2023-01-25T13:08:03.145Z,101795.28
2023-01-25T13:10:35.758Z,101806.63
2023-01-25T13:13:18.057Z,101758.47
2023-01-25T13:15:46.221Z,101794.56
2023-01-25T13:18:41.974Z,101756.03
2023-01-25T13:21:11.554Z,101774.44
2023-01-25T13:23:50.694Z,101774.47
2023-01-25T13:26:26.616Z,101764.97
2023-01-25T13:28:54.586Z,101700.19
2023-01-25T13:31:51.876Z,101751.09
2023-01-25T13:34:40.349Z,101745.94
2023-01-25T13:37:30.913Z,101742.47
2023-01-25T13:40:09.665Z,101752.06
2023-01-25T13:42:39.411Z,101724.16
2023-01-25T13:45:20.938Z,101733.75
2023-01-25T13:48:12.967Z,101730.25
2023-01-25T13:50:47.872Z,101633.84
2023-01-25T13:53:14.328Z,101711.81
2023-01-25T13:55:46.609Z,101684.47
2023-01-25T13:58:21.961Z,101731.00
2023-01-25T14:00:56.028Z,101691.69
2023-01-25T14:03:36.759Z,101717.06
2023-01-25T14:06:04.370Z,101715.31
2023-01-25T14:08:31.892Z,101645.97
2023-01-25T14:10:58.773Z,101666.97
2023-01-25T14:13:25.543Z,101701.13
2023-01-25T14:16:00.436Z,101628.41
2023-01-25T14:18:35.261Z,101669.69
2023-01-25T14:21:22.121Z,101676.75
2023-01-25T14:23:52.341Z,101655.75
2023-01-25T14:26:25.357Z,101659.16
2023-01-25T14:29:01.179Z,101645.22
2023-01-25T14:31:34.699Z,101613.69
2023-01-25T14:34:04.344Z,101634.59
2023-01-25T14:36:34.354Z,101592.41
2023-01-25T14:39:03.188Z,101579.38
2023-01-25T14:42:01.005Z,101622.25
2023-01-25T14:44:29.678Z,101641.56
2023-01-25T14:47:32.935Z,101660.91
2023-01-25T14:50:35.122Z,101652.22
2023-01-25T14:53:20.891Z,101615.47
2023-01-25T14:55:49.183Z,101650.53
2023-01-25T14:58:25.987Z,101648.78
2023-01-25T15:00:54.369Z,101494.78
2023-01-25T15:03:22.526Z,101571.06
2023-01-25T15:05:49.363Z,101590.28
2023-01-25T15:08:30.176Z,101593.84
2023-01-25T15:11:19.482Z,101627.06
2023-01-25T15:13:46.350Z,101507.09
2023-01-25T15:16:13.697Z,101606.84
2023-01-25T15:18:53.297Z,101625.25
2023-01-25T15:21:28.513Z,101535.97
2023-01-25T15:24:06.734Z,101564.81
2023-01-25T15:26:35.184Z,101619.09
2023-01-25T15:29:10.232Z,101586.78
2023-01-25T15:31:38.345Z,101485.19
2023-01-25T15:34:08.312Z,101577.94
2023-01-25T15:36:34.985Z,101416.22
2023-01-25T15:39:01.552Z,101531.63
2023-01-25T15:41:28.079Z,101559.69
2023-01-25T15:43:54.677Z,101569.38
2023-01-25T15:46:25.098Z,101605.16
2023-01-25T15:48:52.375Z,101511.56
2023-01-25T15:51:19.351Z,101543.84
2023-01-25T15:53:47.077Z,101607.75
2023-01-25T15:56:19.591Z,101550.03
2023-01-25T15:58:51.604Z,101444.25
2023-01-25T16:01:18.796Z,101424.19
2023-01-25T16:03:46.018Z,101373.34
2023-01-25T16:06:28.693Z,101471.03
2023-01-25T16:08:55.514Z,101415.94
2023-01-25T16:11:22.724Z,101555.06
2023-01-25T16:13:49.288Z,101548.09
2023-01-25T16:16:21.099Z,101445.72
2023-01-25T16:18:47.800Z,101499.84
2023-01-25T16:21:15.505Z,101473.59
2023-01-25T16:23:42.682Z,101552.31
2023-01-25T16:26:23.680Z,101574.06
2023-01-25T16:28:50.211Z,101387.81
2023-01-25T16:31:31.333Z,101608.22
2023-01-25T16:33:58.912Z,101590.66
2023-01-25T16:36:25.593Z,101542.59
2023-01-25T16:38:52.460Z,101488.31
2023-01-25T16:41:19.081Z,101586.41
2023-01-25T16:43:49.616Z,101532.97
2023-01-25T16:46:22.165Z,101552.38
2023-01-25T16:48:51.124Z,101446.59
2023-01-25T16:51:26.889Z,101595.34
2023-01-25T16:53:58.045Z,101564.75
2023-01-25T16:56:33.832Z,101576.09
2023-01-25T16:59:03.782Z,101567.38
2023-01-25T17:01:30.699Z,101577.81
2023-01-25T17:03:57.795Z,101566.44
2023-01-25T17:06:26.946Z,101475.56
2023-01-25T17:08:56.624Z,101537.59
2023-01-25T17:11:23.947Z,101569.28
2023-01-25T17:13:52.374Z,101555.28
2023-01-25T17:16:21.640Z,101571.00
2023-01-25T17:18:48.374Z,101471.31
2023-01-25T17:21:16.751Z,101538.81
2023-01-25T17:23:44.072Z,101558.84
2023-01-25T17:26:13.417Z,101433.75
2023-01-25T17:28:41.647Z,101409.38
2023-01-25T17:31:22.454Z,101497.63
2023-01-25T17:33:50.226Z,101545.75
2023-01-25T17:36:16.757Z,101555.25
2023-01-25T17:38:44.110Z,101531.69
2023-01-25T17:41:13.312Z,101504.56
2023-01-25T17:43:40.220Z,101545.66
2023-01-25T17:46:22.677Z,101466.06
2023-01-25T17:48:53.293Z,101544.72
2023-01-25T17:51:20.426Z,101524.69
2023-01-25T17:53:47.391Z,101380.38
2023-01-25T17:56:14.518Z,101484.44
2023-01-25T17:58:42.053Z,101447.81
2023-01-25T18:01:17.291Z,101441.72
2023-01-25T18:03:45.095Z,101460.13
2023-01-25T18:06:14.096Z,101505.56
2023-01-25T18:08:42.529Z,101421.59
2023-01-25T18:11:11.058Z,101412.16
2023-01-25T18:13:49.426Z,101508.34
2023-01-25T18:16:17.499Z,101475.13
2023-01-25T18:18:45.609Z,101500.47
2023-01-25T18:21:15.067Z,101485.63
2023-01-25T18:23:43.136Z,101478.63
2023-01-25T18:26:21.585Z,101489.25
2023-01-25T18:28:49.445Z,101494.50
2023-01-25T18:31:17.534Z,101470.03
2023-01-25T18:33:45.059Z,101463.94
2023-01-25T18:36:16.124Z,101398.38
2023-01-25T18:38:42.817Z,101489.28
2023-01-25T18:41:09.719Z,101366.00
2023-01-25T18:43:36.512Z,101484.94
2023-01-25T18:46:03.223Z,101474.63
2023-01-25T18:48:32.709Z,101471.94
2023-01-25T18:51:11.331Z,101420.38
2023-01-25T18:53:40.160Z,101464.09
2023-01-25T18:56:18.642Z,101419.50
2023-01-25T18:58:45.687Z,101373.22
2023-01-25T19:01:12.280Z,101467.56
2023-01-25T19:03:38.833Z,101431.78
2023-01-25T19:06:05.882Z,101417.66
2023-01-25T19:08:35.544Z,101454.44
2023-01-25T19:11:08.717Z,101436.91
2023-01-25T19:13:39.733Z,101363.53
2023-01-25T19:16:13.509Z,101470.06
2023-01-25T19:18:46.645Z,101393.22
2023-01-25T19:21:19.021Z,101345.25
2023-01-25T19:23:45.729Z,101373.25
2023-01-25T19:26:15.462Z,101412.69
2023-01-25T19:28:42.761Z,101436.31
2023-01-25T19:31:23.045Z,101306.19
2023-01-25T19:34:00.589Z,101428.44
2023-01-25T19:36:29.575Z,101434.53
2023-01-25T19:39:00.670Z,101323.59
2023-01-25T19:41:29.456Z,101378.63
2023-01-25T19:44:00.744Z,101385.66
2023-01-25T19:46:31.765Z,101196.22
2023-01-25T19:49:02.137Z,101397.94
2023-01-25T19:51:33.926Z,101389.19
2023-01-25T19:54:03.586Z,101418.91
2023-01-25T19:56:33.167Z,101190.19
2023-01-25T19:59:02.009Z,101388.41
2023-01-25T20:01:29.445Z,101417.19
2023-01-25T20:03:59.641Z,101408.47
2023-01-25T20:06:34.541Z,101414.53
2023-01-25T20:09:01.277Z,101156.03
2023-01-25T20:11:35.858Z,101301.03
2023-01-25T20:14:05.100Z,101348.19
2023-01-25T20:16:37.383Z,101357.00
2023-01-25T20:19:04.774Z,101205.09
2023-01-25T20:21:32.379Z,101224.31
2023-01-25T20:24:02.639Z,101116.06
2023-01-25T20:26:34.843Z,101266.16
2023-01-25T20:29:01.695Z,101286.19
2023-01-25T20:31:31.648Z,101268.78
2023-01-25T20:34:03.983Z,101264.34
2023-01-25T20:36:33.335Z,101379.53
2023-01-25T20:39:03.012Z,101376.97
2023-01-25T20:41:29.867Z,101361.28
2023-01-25T20:44:00.911Z,101358.69
2023-01-25T20:46:34.437Z,101383.13
2023-01-25T20:49:02.164Z,101390.06
2023-01-25T20:51:29.597Z,101253.66
2023-01-25T20:53:56.744Z,101333.31
2023-01-25T20:56:26.073Z,101309.69
2023-01-25T20:58:53.452Z,101376.03
2023-01-25T21:01:26.612Z,101166.53
2023-01-25T21:03:54.514Z,101286.06
2023-01-25T21:06:20.987Z,101272.03
2023-01-25T21:08:47.587Z,101268.63
2023-01-25T21:11:14.343Z,101292.16
2023-01-25T21:13:41.144Z,101311.53
2023-01-25T21:16:14.724Z,101342.13
2023-01-25T21:18:48.661Z,101267.03
2023-01-25T21:21:28.023Z,101358.81
2023-01-25T21:23:57.007Z,101330.88
2023-01-25T21:26:31.865Z,101347.53
2023-01-25T21:28:59.642Z,101281.25
2023-01-25T21:31:28.357Z,101224.53
2023-01-25T21:33:55.643Z,101216.72
2023-01-25T21:36:23.456Z,101331.97
2023-01-25T21:38:52.270Z,101293.63
2023-01-25T21:41:24.845Z,101280.47
2023-01-25T21:44:11.428Z,101311.00
2023-01-25T21:46:38.873Z,101320.59
2023-01-25T21:49:28.471Z,101323.22
2023-01-25T21:51:59.149Z,101318.84
2023-01-25T21:54:33.922Z,101324.91
2023-01-25T21:57:03.123Z,101282.94
2023-01-25T21:59:29.814Z,101261.13
2023-01-25T22:01:56.532Z,101273.25
2023-01-25T22:04:24.867Z,101306.50
2023-01-25T22:06:54.882Z,101295.22
2023-01-25T22:09:22.704Z,101294.28
2023-01-25T22:11:51.071Z,101258.41
2023-01-25T22:14:23.264Z,101260.09
2023-01-25T22:16:51.305Z,101274.97
2023-01-25T22:19:18.261Z,101148.41
2023-01-25T22:21:45.490Z,101184.16
2023-01-25T22:24:13.029Z,101185.06
2023-01-25T22:26:45.581Z,101275.00
2023-01-25T22:29:12.766Z,101268.94
2023-01-25T22:31:39.925Z,101241.06
2023-01-25T22:34:06.988Z,101238.47
2023-01-25T22:36:34.063Z,101160.84
2023-01-25T22:39:00.672Z,101201.84
2023-01-25T22:41:29.668Z,101014.28
2023-01-25T22:43:56.460Z,101157.38
2023-01-25T22:46:25.643Z,101159.00
2023-01-25T22:48:52.548Z,101093.78
2023-01-25T22:51:25.050Z,101178.34
2023-01-25T22:53:52.256Z,101222.88
2023-01-25T22:56:25.082Z,101267.31
2023-01-25T22:58:52.391Z,101196.69
2023-01-25T23:01:24.521Z,101191.47
2023-01-25T23:03:51.632Z,101183.63
2023-01-25T23:06:29.544Z,101198.47
2023-01-25T23:08:59.962Z,101187.09
2023-01-25T23:11:37.447Z,101229.84
2023-01-25T23:14:24.916Z,101160.09
2023-01-25T23:16:51.624Z,101227.34
2023-01-25T23:19:18.457Z,101180.25
2023-01-25T23:21:44.959Z,101097.50
2023-01-25T23:24:12.678Z,101246.50
2023-01-25T23:26:39.548Z,101124.50
2023-01-25T23:29:11.418Z,101156.75
2023-01-25T23:31:38.440Z,101066.03
2023-01-25T23:34:06.957Z,101076.47
2023-01-25T23:36:38.852Z,101175.94
2023-01-25T23:39:06.312Z,101198.59
2023-01-25T23:41:33.515Z,101013.78
2023-01-25T23:44:00.905Z,101084.38
2023-01-25T23:46:28.585Z,101030.41
2023-01-25T23:48:55.374Z,101139.41
2023-01-25T23:51:22.139Z,101034.91
2023-01-25T23:53:49.100Z,101117.84
2023-01-25T23:56:18.638Z,101172.72
2023-01-25T23:58:45.994Z,101176.13
